sensor_id;sensor_type;location;lat;lon;timestamp;temperature;humidity
13794;DHT22;31160;49.500;7.772;2023-03-13T00:01:30;9.90;99.90
13794;DHT22;31160;49.500;7.772;2023-03-13T00:03:57;9.80;99.90
13794;DHT22;31160;49.500;7.772;2023-03-13T00:06:26;9.90;99.90
13794;DHT22;31160;49.500;7.772;2023-03-13T00:08:54;9.90;99.90
13794;DHT22;31160;49.500;7.772;2023-03-13T00:11:21;9.90;99.90
13794;DHT22;31160;49.500;7.772;2023-03-13T00:13:48;10.00;99.90
13794;DHT22;31160;49.500;7.772;2023-03-13T00:16:19;10.00;99.90
13794;DHT22;31160;49.500;7.772;2023-03-13T00:18:47;10.00;99.90
13794;DHT22;31160;49.500;7.772;2023-03-13T00:21:14;10.00;99.90
13794;DHT22;31160;49.500;7.772;2023-03-13T00:23:41;10.10;99.90
13794;DHT22;31160;49.500;7.772;2023-03-13T00:26:11;10.10;99.90
13794;DHT22;31160;49.500;7.772;2023-03-13T00:28:39;10.00;99.90
13794;DHT22;31160;49.500;7.772;2023-03-13T00:31:11;10.00;99.90
13794;DHT22;31160;49.500;7.772;2023-03-13T00:33:41;10.00;99.90
13794;DHT22;31160;49.500;7.772;2023-03-13T00:36:22;10.00;99.90
13794;DHT22;31160;49.500;7.772;2023-03-13T00:38:51;9.90;99.90
13794;DHT22;31160;49.500;7.772;2023-03-13T00:41:26;9.90;99.90
13794;DHT22;31160;49.500;7.772;2023-03-13T00:43:54;9.90;99.90
13794;DHT22;31160;49.500;7.772;2023-03-13T00:46:23;10.00;99.90
13794;DHT22;31160;49.500;7.772;2023-03-13T00:48:51;10.00;99.90
13794;DHT22;31160;49.500;7.772;2023-03-13T00:51:19;10.00;99.90
13794;DHT22;31160;49.500;7.772;2023-03-13T00:53:47;10.10;99.90
13794;DHT22;31160;49.500;7.772;2023-03-13T00:56:15;10.10;99.90
13794;DHT22;31160;49.500;7.772;2023-03-13T00:58:43;10.30;99.90
13794;DHT22;31160;49.500;7.772;2023-03-13T01:01:19;10.20;99.90
13794;DHT22;31160;49.500;7.772;2023-03-13T01:03:49;10.20;99.90
13794;DHT22;31160;49.500;7.772;2023-03-13T01:06:19;10.20;99.90
13794;DHT22;31160;49.500;7.772;2023-03-13T01:08:46;10.10;99.90
13794;DHT22;31160;49.500;7.772;2023-03-13T01:11:21;10.20;99.90
13794;DHT22;31160;49.500;7.772;2023-03-13T01:13:59;10.20;99.90
13794;DHT22;31160;49.500;7.772;2023-03-13T01:16:29;10.30;99.90
13794;DHT22;31160;49.500;7.772;2023-03-13T01:19:00;10.20;99.90
13794;DHT22;31160;49.500;7.772;2023-03-13T01:21:29;10.30;99.90
13794;DHT22;31160;49.500;7.772;2023-03-13T01:23:56;10.20;99.90
13794;DHT22;31160;49.500;7.772;2023-03-13T01:26:23;10.20;99.90
13794;DHT22;31160;49.500;7.772;2023-03-13T01:28:50;10.30;99.90
13794;DHT22;31160;49.500;7.772;2023-03-13T01:31:22;10.30;99.90
13794;DHT22;31160;49.500;7.772;2023-03-13T01:33:52;10.40;99.90
13794;DHT22;31160;49.500;7.772;2023-03-13T01:36:19;10.50;99.90
13794;DHT22;31160;49.500;7.772;2023-03-13T01:38:51;10.50;99.90
13794;DHT22;31160;49.500;7.772;2023-03-13T01:41:19;10.50;99.90
13794;DHT22;31160;49.500;7.772;2023-03-13T01:43:47;10.50;99.90
13794;DHT22;31160;49.500;7.772;2023-03-13T01:46:17;10.50;99.90
13794;DHT22;31160;49.500;7.772;2023-03-13T01:49:12;10.50;99.90
13794;DHT22;31160;49.500;7.772;2023-03-13T01:52:21;10.50;99.90
13794;DHT22;31160;49.500;7.772;2023-03-13T01:55:03;10.40;99.90
13794;DHT22;31160;49.500;7.772;2023-03-13T01:57:33;10.40;99.90
13794;DHT22;31160;49.500;7.772;2023-03-13T02:02:41;10.10;99.90
13794;DHT22;31160;49.500;7.772;2023-03-13T02:05:08;10.10;99.90
13794;DHT22;31160;49.500;7.772;2023-03-13T02:07:36;10.00;99.90
13794;DHT22;31160;49.500;7.772;2023-03-13T02:10:05;10.00;99.90
13794;DHT22;31160;49.500;7.772;2023-03-13T02:12:35;9.90;99.90
13794;DHT22;31160;49.500;7.772;2023-03-13T02:15:12;9.90;99.90
13794;DHT22;31160;49.500;7.772;2023-03-13T02:17:41;9.80;99.90
13794;DHT22;31160;49.500;7.772;2023-03-13T02:20:09;9.80;99.90
13794;DHT22;31160;49.500;7.772;2023-03-13T02:22:45;9.70;99.90
13794;DHT22;31160;49.500;7.772;2023-03-13T02:28:06;9.70;99.90
13794;DHT22;31160;49.500;7.772;2023-03-13T02:30:35;9.70;99.90
13794;DHT22;31160;49.500;7.772;2023-03-13T02:33:03;9.70;99.90
13794;DHT22;31160;49.500;7.772;2023-03-13T02:35:31;9.60;99.90
13794;DHT22;31160;49.500;7.772;2023-03-13T02:38:04;9.60;99.90
13794;DHT22;31160;49.500;7.772;2023-03-13T02:40:35;9.40;99.90
13794;DHT22;31160;49.500;7.772;2023-03-13T02:43:10;9.30;99.90
13794;DHT22;31160;49.500;7.772;2023-03-13T02:45:38;9.50;99.90
13794;DHT22;31160;49.500;7.772;2023-03-13T02:48:06;9.40;99.90
13794;DHT22;31160;49.500;7.772;2023-03-13T02:50:34;9.40;99.90
13794;DHT22;31160;49.500;7.772;2023-03-13T02:53:05;9.40;99.90
13794;DHT22;31160;49.500;7.772;2023-03-13T02:55:38;9.40;99.90
13794;DHT22;31160;49.500;7.772;2023-03-13T02:58:07;9.40;99.90
13794;DHT22;31160;49.500;7.772;2023-03-13T03:00:36;9.40;99.90
13794;DHT22;31160;49.500;7.772;2023-03-13T03:03:03;9.50;99.90
13794;DHT22;31160;49.500;7.772;2023-03-13T03:05:29;9.40;99.90
13794;DHT22;31160;49.500;7.772;2023-03-13T03:07:57;9.40;99.90
13794;DHT22;31160;49.500;7.772;2023-03-13T03:10:24;9.40;99.90
13794;DHT22;31160;49.500;7.772;2023-03-13T03:12:51;9.50;99.90
13794;DHT22;31160;49.500;7.772;2023-03-13T03:15:17;9.40;99.90
13794;DHT22;31160;49.500;7.772;2023-03-13T03:17:46;9.40;99.90
13794;DHT22;31160;49.500;7.772;2023-03-13T03:20:13;9.50;99.90
13794;DHT22;31160;49.500;7.772;2023-03-13T03:22:42;9.60;99.90
13794;DHT22;31160;49.500;7.772;2023-03-13T03:25:09;9.50;99.90
13794;DHT22;31160;49.500;7.772;2023-03-13T03:27:36;9.60;99.90
13794;DHT22;31160;49.500;7.772;2023-03-13T03:30:06;9.60;99.90
13794;DHT22;31160;49.500;7.772;2023-03-13T03:32:35;9.50;99.90
13794;DHT22;31160;49.500;7.772;2023-03-13T03:35:02;9.70;99.90
13794;DHT22;31160;49.500;7.772;2023-03-13T03:37:28;9.70;99.90
13794;DHT22;31160;49.500;7.772;2023-03-13T03:39:56;9.60;99.90
13794;DHT22;31160;49.500;7.772;2023-03-13T03:42:23;9.70;99.90
13794;DHT22;31160;49.500;7.772;2023-03-13T03:44:50;9.70;99.90
13794;DHT22;31160;49.500;7.772;2023-03-13T03:47:17;9.70;99.90
13794;DHT22;31160;49.500;7.772;2023-03-13T03:49:46;9.70;99.90
13794;DHT22;31160;49.500;7.772;2023-03-13T03:52:14;9.70;99.90
13794;DHT22;31160;49.500;7.772;2023-03-13T03:54:42;9.70;99.90
13794;DHT22;31160;49.500;7.772;2023-03-13T03:57:09;9.80;99.90
13794;DHT22;31160;49.500;7.772;2023-03-13T03:59:37;9.80;99.90
13794;DHT22;31160;49.500;7.772;2023-03-13T04:02:08;9.80;99.90
13794;DHT22;31160;49.500;7.772;2023-03-13T04:04:35;9.80;99.90
13794;DHT22;31160;49.500;7.772;2023-03-13T04:07:11;9.90;99.90
13794;DHT22;31160;49.500;7.772;2023-03-13T04:09:39;9.90;99.90
13794;DHT22;31160;49.500;7.772;2023-03-13T04:12:08;9.80;99.90
13794;DHT22;31160;49.500;7.772;2023-03-13T04:14:39;9.90;99.90
13794;DHT22;31160;49.500;7.772;2023-03-13T04:17:09;9.90;99.90
13794;DHT22;31160;49.500;7.772;2023-03-13T04:19:37;9.90;99.90
13794;DHT22;31160;49.500;7.772;2023-03-13T04:22:03;10.00;99.90
13794;DHT22;31160;49.500;7.772;2023-03-13T04:24:30;10.00;99.90
13794;DHT22;31160;49.500;7.772;2023-03-13T04:26:57;10.00;99.90
13794;DHT22;31160;49.500;7.772;2023-03-13T04:29:25;10.00;99.90
13794;DHT22;31160;49.500;7.772;2023-03-13T04:32:09;10.10;99.90
13794;DHT22;31160;49.500;7.772;2023-03-13T04:34:51;10.10;99.90
13794;DHT22;31160;49.500;7.772;2023-03-13T04:37:30;10.10;99.90
13794;DHT22;31160;49.500;7.772;2023-03-13T04:40:09;10.10;99.90
13794;DHT22;31160;49.500;7.772;2023-03-13T04:42:45;10.10;99.90
13794;DHT22;31160;49.500;7.772;2023-03-13T04:45:27;10.20;99.90
13794;DHT22;31160;49.500;7.772;2023-03-13T04:48:12;10.20;99.90
13794;DHT22;31160;49.500;7.772;2023-03-13T04:50:51;10.20;99.90
13794;DHT22;31160;49.500;7.772;2023-03-13T04:53:44;10.30;99.90
13794;DHT22;31160;49.500;7.772;2023-03-13T04:56:25;10.50;99.90
13794;DHT22;31160;49.500;7.772;2023-03-13T04:59:28;10.30;99.90
13794;DHT22;31160;49.500;7.772;2023-03-13T05:02:08;10.40;99.90
13794;DHT22;31160;49.500;7.772;2023-03-13T05:04:38;10.40;99.90
13794;DHT22;31160;49.500;7.772;2023-03-13T05:07:23;10.40;99.90
13794;DHT22;31160;49.500;7.772;2023-03-13T05:10:24;10.40;99.90
13794;DHT22;31160;49.500;7.772;2023-03-13T05:13:14;10.50;99.90
13794;DHT22;31160;49.500;7.772;2023-03-13T05:15:59;10.40;99.90
13794;DHT22;31160;49.500;7.772;2023-03-13T05:18:41;10.30;99.90
13794;DHT22;31160;49.500;7.772;2023-03-13T05:21:18;10.40;99.90
13794;DHT22;31160;49.500;7.772;2023-03-13T05:24:01;10.40;99.90
13794;DHT22;31160;49.500;7.772;2023-03-13T05:26:38;10.30;99.90
13794;DHT22;31160;49.500;7.772;2023-03-13T05:29:04;10.30;99.90
13794;DHT22;31160;49.500;7.772;2023-03-13T05:31:55;10.30;99.90
13794;DHT22;31160;49.500;7.772;2023-03-13T05:34:32;10.30;99.90
13794;DHT22;31160;49.500;7.772;2023-03-13T05:37:22;10.30;99.90
13794;DHT22;31160;49.500;7.772;2023-03-13T05:40:27;10.40;99.90
13794;DHT22;31160;49.500;7.772;2023-03-13T05:43:20;10.40;99.90
13794;DHT22;31160;49.500;7.772;2023-03-13T05:46:07;10.50;99.90
13794;DHT22;31160;49.500;7.772;2023-03-13T05:48:48;10.40;99.90
13794;DHT22;31160;49.500;7.772;2023-03-13T05:51:30;10.50;99.90
13794;DHT22;31160;49.500;7.772;2023-03-13T05:54:11;10.50;99.90
13794;DHT22;31160;49.500;7.772;2023-03-13T05:56:56;10.50;99.90
13794;DHT22;31160;49.500;7.772;2023-03-13T05:59:32;10.60;99.90
13794;DHT22;31160;49.500;7.772;2023-03-13T06:02:17;10.60;99.90
13794;DHT22;31160;49.500;7.772;2023-03-13T06:04:46;10.70;99.90
13794;DHT22;31160;49.500;7.772;2023-03-13T06:07:13;10.70;99.90
13794;DHT22;31160;49.500;7.772;2023-03-13T06:09:40;10.80;99.90
13794;DHT22;31160;49.500;7.772;2023-03-13T06:12:10;10.90;99.90
13794;DHT22;31160;49.500;7.772;2023-03-13T06:14:37;10.80;99.90
13794;DHT22;31160;49.500;7.772;2023-03-13T06:17:13;10.70;99.90
13794;DHT22;31160;49.500;7.772;2023-03-13T06:19:40;10.70;99.90
13794;DHT22;31160;49.500;7.772;2023-03-13T06:22:06;10.80;99.90
13794;DHT22;31160;49.500;7.772;2023-03-13T06:24:33;10.80;99.90
13794;DHT22;31160;49.500;7.772;2023-03-13T06:27:00;10.80;99.90
13794;DHT22;31160;49.500;7.772;2023-03-13T06:29:27;10.90;99.90
13794;DHT22;31160;49.500;7.772;2023-03-13T06:31:54;10.90;99.90
13794;DHT22;31160;49.500;7.772;2023-03-13T06:34:21;10.90;99.90
13794;DHT22;31160;49.500;7.772;2023-03-13T06:36:47;11.00;99.90
13794;DHT22;31160;49.500;7.772;2023-03-13T06:39:14;11.00;99.90
13794;DHT22;31160;49.500;7.772;2023-03-13T06:41:41;11.00;99.90
13794;DHT22;31160;49.500;7.772;2023-03-13T06:44:07;11.10;99.90
13794;DHT22;31160;49.500;7.772;2023-03-13T06:46:34;11.10;99.90
13794;DHT22;31160;49.500;7.772;2023-03-13T06:49:01;11.10;99.90
13794;DHT22;31160;49.500;7.772;2023-03-13T06:51:30;11.10;99.90
13794;DHT22;31160;49.500;7.772;2023-03-13T06:53:57;11.00;99.90
13794;DHT22;31160;49.500;7.772;2023-03-13T06:56:23;11.00;99.90
13794;DHT22;31160;49.500;7.772;2023-03-13T06:58:50;11.00;99.90
13794;DHT22;31160;49.500;7.772;2023-03-13T07:01:17;11.10;99.90
13794;DHT22;31160;49.500;7.772;2023-03-13T07:03:46;11.10;99.90
13794;DHT22;31160;49.500;7.772;2023-03-13T07:06:13;11.20;99.90
13794;DHT22;31160;49.500;7.772;2023-03-13T07:08:40;11.20;99.90
13794;DHT22;31160;49.500;7.772;2023-03-13T07:11:11;11.20;99.90
13794;DHT22;31160;49.500;7.772;2023-03-13T07:13:38;11.30;99.90
13794;DHT22;31160;49.500;7.772;2023-03-13T07:16:07;11.30;99.90
13794;DHT22;31160;49.500;7.772;2023-03-13T07:18:35;11.30;99.90
13794;DHT22;31160;49.500;7.772;2023-03-13T07:21:03;11.30;99.90
13794;DHT22;31160;49.500;7.772;2023-03-13T07:23:31;11.30;99.90
13794;DHT22;31160;49.500;7.772;2023-03-13T07:26:03;11.40;99.90
13794;DHT22;31160;49.500;7.772;2023-03-13T07:28:30;11.40;99.90
13794;DHT22;31160;49.500;7.772;2023-03-13T07:31:10;11.40;99.90
13794;DHT22;31160;49.500;7.772;2023-03-13T07:33:38;11.40;99.90
13794;DHT22;31160;49.500;7.772;2023-03-13T07:36:06;11.40;99.90
13794;DHT22;31160;49.500;7.772;2023-03-13T07:38:33;11.30;99.90
13794;DHT22;31160;49.500;7.772;2023-03-13T07:41:01;11.30;99.90
13794;DHT22;31160;49.500;7.772;2023-03-13T07:43:28;11.30;99.90
13794;DHT22;31160;49.500;7.772;2023-03-13T07:45:58;11.30;99.90
13794;DHT22;31160;49.500;7.772;2023-03-13T07:48:31;11.30;99.90
13794;DHT22;31160;49.500;7.772;2023-03-13T07:50:58;11.30;99.90
13794;DHT22;31160;49.500;7.772;2023-03-13T07:53:26;11.40;99.90
13794;DHT22;31160;49.500;7.772;2023-03-13T07:56:02;11.30;99.90
13794;DHT22;31160;49.500;7.772;2023-03-13T07:58:32;11.30;99.90
13794;DHT22;31160;49.500;7.772;2023-03-13T08:00:59;11.30;99.90
13794;DHT22;31160;49.500;7.772;2023-03-13T08:03:26;11.30;99.90
13794;DHT22;31160;49.500;7.772;2023-03-13T08:06:00;11.30;99.90
13794;DHT22;31160;49.500;7.772;2023-03-13T08:08:28;11.30;99.90
13794;DHT22;31160;49.500;7.772;2023-03-13T08:11:01;11.40;99.90
13794;DHT22;31160;49.500;7.772;2023-03-13T08:13:29;11.20;99.90
13794;DHT22;31160;49.500;7.772;2023-03-13T08:16:08;11.20;99.90
13794;DHT22;31160;49.500;7.772;2023-03-13T08:18:36;11.20;99.90
13794;DHT22;31160;49.500;7.772;2023-03-13T08:21:05;11.10;99.90
13794;DHT22;31160;49.500;7.772;2023-03-13T08:23:32;11.00;99.90
13794;DHT22;31160;49.500;7.772;2023-03-13T08:26:11;11.20;99.90
13794;DHT22;31160;49.500;7.772;2023-03-13T08:28:39;11.40;99.90
13794;DHT22;31160;49.500;7.772;2023-03-13T08:31:16;11.40;99.90
13794;DHT22;31160;49.500;7.772;2023-03-13T08:33:44;11.30;99.90
13794;DHT22;31160;49.500;7.772;2023-03-13T08:36:20;11.50;99.90
13794;DHT22;31160;49.500;7.772;2023-03-13T08:38:49;11.70;99.90
13794;DHT22;31160;49.500;7.772;2023-03-13T08:41:18;11.70;99.90
13794;DHT22;31160;49.500;7.772;2023-03-13T08:43:46;11.70;99.90
13794;DHT22;31160;49.500;7.772;2023-03-13T08:46:14;11.80;99.90
13794;DHT22;31160;49.500;7.772;2023-03-13T08:48:43;11.80;99.90
13794;DHT22;31160;49.500;7.772;2023-03-13T08:51:13;11.90;99.90
13794;DHT22;31160;49.500;7.772;2023-03-13T08:53:41;11.90;99.90
13794;DHT22;31160;49.500;7.772;2023-03-13T08:56:10;11.90;99.90
13794;DHT22;31160;49.500;7.772;2023-03-13T08:58:37;11.90;99.90
13794;DHT22;31160;49.500;7.772;2023-03-13T09:01:07;12.00;99.90
13794;DHT22;31160;49.500;7.772;2023-03-13T09:03:34;11.80;99.90
13794;DHT22;31160;49.500;7.772;2023-03-13T09:06:01;11.90;99.90
13794;DHT22;31160;49.500;7.772;2023-03-13T09:08:29;12.10;99.90
13794;DHT22;31160;49.500;7.772;2023-03-13T09:10:58;12.30;99.90
13794;DHT22;31160;49.500;7.772;2023-03-13T09:13:26;12.30;99.90
13794;DHT22;31160;49.500;7.772;2023-03-13T09:15:55;12.50;99.90
13794;DHT22;31160;49.500;7.772;2023-03-13T09:18:22;12.80;99.90
13794;DHT22;31160;49.500;7.772;2023-03-13T09:20:49;12.90;99.90
13794;DHT22;31160;49.500;7.772;2023-03-13T09:23:16;13.00;99.90
13794;DHT22;31160;49.500;7.772;2023-03-13T09:25:43;12.70;99.90
13794;DHT22;31160;49.500;7.772;2023-03-13T09:28:09;13.00;99.90
13794;DHT22;31160;49.500;7.772;2023-03-13T09:30:36;13.00;99.90
13794;DHT22;31160;49.500;7.772;2023-03-13T09:33:03;12.80;99.90
13794;DHT22;31160;49.500;7.772;2023-03-13T09:35:30;12.50;99.90
13794;DHT22;31160;49.500;7.772;2023-03-13T09:37:57;12.40;99.90
13794;DHT22;31160;49.500;7.772;2023-03-13T09:40:25;12.40;99.90
13794;DHT22;31160;49.500;7.772;2023-03-13T09:42:57;12.50;99.90
13794;DHT22;31160;49.500;7.772;2023-03-13T09:45:33;12.70;99.90
13794;DHT22;31160;49.500;7.772;2023-03-13T09:50:43;12.80;99.90
13794;DHT22;31160;49.500;7.772;2023-03-13T09:53:19;12.80;99.90
13794;DHT22;31160;49.500;7.772;2023-03-13T09:55:52;12.90;99.90
13794;DHT22;31160;49.500;7.772;2023-03-13T09:58:27;12.80;99.90
13794;DHT22;31160;49.500;7.772;2023-03-13T10:00:59;12.70;99.90
13794;DHT22;31160;49.500;7.772;2023-03-13T10:03:30;12.60;99.90
13794;DHT22;31160;49.500;7.772;2023-03-13T10:06:04;12.60;99.90
13794;DHT22;31160;49.500;7.772;2023-03-13T10:08:35;12.70;99.90
13794;DHT22;31160;49.500;7.772;2023-03-13T10:13:50;12.90;99.90
13794;DHT22;31160;49.500;7.772;2023-03-13T10:16:30;13.00;99.90
13794;DHT22;31160;49.500;7.772;2023-03-13T10:19:15;13.10;99.90
13794;DHT22;31160;49.500;7.772;2023-03-13T10:21:47;13.20;99.90
13794;DHT22;31160;49.500;7.772;2023-03-13T10:24:36;13.40;99.90
13794;DHT22;31160;49.500;7.772;2023-03-13T10:27:10;13.50;99.90
13794;DHT22;31160;49.500;7.772;2023-03-13T10:29:39;13.50;99.90
13794;DHT22;31160;49.500;7.772;2023-03-13T10:32:07;13.60;99.90
13794;DHT22;31160;49.500;7.772;2023-03-13T10:34:51;13.80;99.90
13794;DHT22;31160;49.500;7.772;2023-03-13T10:37:22;13.80;99.90
13794;DHT22;31160;49.500;7.772;2023-03-13T10:39:50;14.00;99.90
13794;DHT22;31160;49.500;7.772;2023-03-13T10:42:26;14.40;99.90
13794;DHT22;31160;49.500;7.772;2023-03-13T10:44:57;14.40;99.90
13794;DHT22;31160;49.500;7.772;2023-03-13T10:47:24;14.40;99.90
13794;DHT22;31160;49.500;7.772;2023-03-13T10:49:55;14.50;99.90
13794;DHT22;31160;49.500;7.772;2023-03-13T10:52:34;14.50;99.90
13794;DHT22;31160;49.500;7.772;2023-03-13T10:55:05;14.60;99.90
13794;DHT22;31160;49.500;7.772;2023-03-13T10:57:34;14.70;99.90
13794;DHT22;31160;49.500;7.772;2023-03-13T11:00:22;15.10;99.90
13794;DHT22;31160;49.500;7.772;2023-03-13T11:02:50;15.40;99.90
13794;DHT22;31160;49.500;7.772;2023-03-13T11:07:52;15.80;99.90
13794;DHT22;31160;49.500;7.772;2023-03-13T11:10:21;15.90;99.90
13794;DHT22;31160;49.500;7.772;2023-03-13T11:12:50;16.30;99.90
13794;DHT22;31160;49.500;7.772;2023-03-13T11:17:55;16.50;99.90
13794;DHT22;31160;49.500;7.772;2023-03-13T11:20:31;16.30;99.90
13794;DHT22;31160;49.500;7.772;2023-03-13T11:28:48;16.50;99.90
13794;DHT22;31160;49.500;7.772;2023-03-13T11:31:31;16.20;99.90
13794;DHT22;31160;49.500;7.772;2023-03-13T11:34:26;16.10;99.90
13794;DHT22;31160;49.500;7.772;2023-03-13T11:37:02;16.10;99.90
13794;DHT22;31160;49.500;7.772;2023-03-13T11:43:00;16.20;99.90
13794;DHT22;31160;49.500;7.772;2023-03-13T11:46:07;16.10;99.90
13794;DHT22;31160;49.500;7.772;2023-03-13T11:56:54;16.70;99.90
13794;DHT22;31160;49.500;7.772;2023-03-13T11:59:43;17.10;99.90
13794;DHT22;31160;49.500;7.772;2023-03-13T12:02:32;17.10;99.90
13794;DHT22;31160;49.500;7.772;2023-03-13T12:05:10;17.50;99.90
13794;DHT22;31160;49.500;7.772;2023-03-13T12:07:41;17.30;99.90
13794;DHT22;31160;49.500;7.772;2023-03-13T12:10:40;17.80;99.90
13794;DHT22;31160;49.500;7.772;2023-03-13T12:13:16;18.10;99.90
13794;DHT22;31160;49.500;7.772;2023-03-13T12:15:55;18.20;99.90
13794;DHT22;31160;49.500;7.772;2023-03-13T12:18:43;18.40;99.90
13794;DHT22;31160;49.500;7.772;2023-03-13T12:21:31;18.50;99.90
13794;DHT22;31160;49.500;7.772;2023-03-13T12:24:24;18.20;99.90
13794;DHT22;31160;49.500;7.772;2023-03-13T12:26:59;17.80;99.90
13794;DHT22;31160;49.500;7.772;2023-03-13T12:32:08;17.40;99.90
13794;DHT22;31160;49.500;7.772;2023-03-13T12:35:06;17.50;99.90
13794;DHT22;31160;49.500;7.772;2023-03-13T12:37:51;17.40;99.90
13794;DHT22;31160;49.500;7.772;2023-03-13T12:40:31;17.50;99.90
13794;DHT22;31160;49.500;7.772;2023-03-13T12:43:10;17.80;99.90
13794;DHT22;31160;49.500;7.772;2023-03-13T12:54:43;18.10;99.90
13794;DHT22;31160;49.500;7.772;2023-03-13T12:57:23;18.50;99.90
13794;DHT22;31160;49.500;7.772;2023-03-13T12:59:58;18.60;99.90
13794;DHT22;31160;49.500;7.772;2023-03-13T13:02:31;18.60;99.90
13794;DHT22;31160;49.500;7.772;2023-03-13T13:05:00;18.70;99.90
13794;DHT22;31160;49.500;7.772;2023-03-13T13:07:32;18.50;99.90
13794;DHT22;31160;49.500;7.772;2023-03-13T13:10:03;18.30;99.90
13794;DHT22;31160;49.500;7.772;2023-03-13T13:12:40;18.20;99.90
13794;DHT22;31160;49.500;7.772;2023-03-13T13:15:23;18.40;99.90
13794;DHT22;31160;49.500;7.772;2023-03-13T13:20:38;18.50;99.90
13794;DHT22;31160;49.500;7.772;2023-03-13T13:25:48;18.50;99.90
13794;DHT22;31160;49.500;7.772;2023-03-13T13:30:43;18.70;99.90
13794;DHT22;31160;49.500;7.772;2023-03-13T13:38:40;19.10;99.90
13794;DHT22;31160;49.500;7.772;2023-03-13T13:43:42;19.30;99.90
13794;DHT22;31160;49.500;7.772;2023-03-13T13:51:40;19.10;99.90
13794;DHT22;31160;49.500;7.772;2023-03-13T13:57:15;19.20;99.90
13794;DHT22;31160;49.500;7.772;2023-03-13T13:59:45;19.10;99.90
13794;DHT22;31160;49.500;7.772;2023-03-13T14:02:20;19.10;99.90
13794;DHT22;31160;49.500;7.772;2023-03-13T14:04:59;19.20;99.90
13794;DHT22;31160;49.500;7.772;2023-03-13T14:07:30;19.00;99.90
13794;DHT22;31160;49.500;7.772;2023-03-13T14:10:03;18.90;99.90
13794;DHT22;31160;49.500;7.772;2023-03-13T14:12:36;18.70;99.90
13794;DHT22;31160;49.500;7.772;2023-03-13T14:17:52;18.70;99.90
13794;DHT22;31160;49.500;7.772;2023-03-13T14:20:32;18.70;99.90
13794;DHT22;31160;49.500;7.772;2023-03-13T14:23:05;18.70;99.90
13794;DHT22;31160;49.500;7.772;2023-03-13T14:25:47;18.70;99.90
13794;DHT22;31160;49.500;7.772;2023-03-13T14:28:24;18.50;99.90
13794;DHT22;31160;49.500;7.772;2023-03-13T14:30:53;18.60;99.90
13794;DHT22;31160;49.500;7.772;2023-03-13T14:33:20;18.70;99.90
13794;DHT22;31160;49.500;7.772;2023-03-13T14:35:47;18.70;99.90
13794;DHT22;31160;49.500;7.772;2023-03-13T14:38:17;18.80;99.90
13794;DHT22;31160;49.500;7.772;2023-03-13T14:40:44;18.60;99.90
13794;DHT22;31160;49.500;7.772;2023-03-13T14:43:40;18.70;99.90
13794;DHT22;31160;49.500;7.772;2023-03-13T14:46:33;18.70;99.90
13794;DHT22;31160;49.500;7.772;2023-03-13T14:49:27;18.70;99.90
13794;DHT22;31160;49.500;7.772;2023-03-13T14:52:06;18.80;99.90
13794;DHT22;31160;49.500;7.772;2023-03-13T14:54:52;19.00;99.90
13794;DHT22;31160;49.500;7.772;2023-03-13T14:57:22;18.90;99.90
13794;DHT22;31160;49.500;7.772;2023-03-13T14:59:54;18.60;99.90
13794;DHT22;31160;49.500;7.772;2023-03-13T15:02:25;18.50;99.90
13794;DHT22;31160;49.500;7.772;2023-03-13T15:04:59;18.50;99.90
13794;DHT22;31160;49.500;7.772;2023-03-13T15:07:37;18.40;99.90
13794;DHT22;31160;49.500;7.772;2023-03-13T15:12:50;18.10;99.90
13794;DHT22;31160;49.500;7.772;2023-03-13T15:15:18;17.30;99.90
13794;DHT22;31160;49.500;7.772;2023-03-13T15:17:45;16.50;99.90
13794;DHT22;31160;49.500;7.772;2023-03-13T15:20:13;15.50;99.90
13794;DHT22;31160;49.500;7.772;2023-03-13T15:22:42;15.10;99.90
13794;DHT22;31160;49.500;7.772;2023-03-13T15:25:35;14.80;99.90
13794;DHT22;31160;49.500;7.772;2023-03-13T15:28:02;14.20;99.90
13794;DHT22;31160;49.500;7.772;2023-03-13T15:30:29;13.60;99.90
13794;DHT22;31160;49.500;7.772;2023-03-13T15:32:56;13.20;99.90
13794;DHT22;31160;49.500;7.772;2023-03-13T15:35:31;12.90;99.90
13794;DHT22;31160;49.500;7.772;2023-03-13T15:37:59;12.50;99.90
13794;DHT22;31160;49.500;7.772;2023-03-13T15:40:27;12.40;99.90
13794;DHT22;31160;49.500;7.772;2023-03-13T15:42:54;12.30;99.90
13794;DHT22;31160;49.500;7.772;2023-03-13T15:45:21;12.30;99.90
13794;DHT22;31160;49.500;7.772;2023-03-13T15:47:49;12.30;99.90
13794;DHT22;31160;49.500;7.772;2023-03-13T15:50:18;12.20;99.90
13794;DHT22;31160;49.500;7.772;2023-03-13T15:52:45;12.20;99.90
13794;DHT22;31160;49.500;7.772;2023-03-13T15:55:12;12.10;99.90
13794;DHT22;31160;49.500;7.772;2023-03-13T15:57:49;12.00;99.90
13794;DHT22;31160;49.500;7.772;2023-03-13T16:00:24;12.00;99.90
13794;DHT22;31160;49.500;7.772;2023-03-13T16:02:51;12.10;99.90
13794;DHT22;31160;49.500;7.772;2023-03-13T16:05:18;12.10;99.90
13794;DHT22;31160;49.500;7.772;2023-03-13T16:07:45;12.20;99.90
13794;DHT22;31160;49.500;7.772;2023-03-13T16:10:19;12.10;99.90
13794;DHT22;31160;49.500;7.772;2023-03-13T16:12:48;12.20;99.90
13794;DHT22;31160;49.500;7.772;2023-03-13T16:15:15;12.10;99.90
13794;DHT22;31160;49.500;7.772;2023-03-13T16:17:42;12.10;99.90
13794;DHT22;31160;49.500;7.772;2023-03-13T16:20:20;12.20;99.90
13794;DHT22;31160;49.500;7.772;2023-03-13T16:22:47;12.20;99.90
13794;DHT22;31160;49.500;7.772;2023-03-13T16:25:14;12.10;99.90
13794;DHT22;31160;49.500;7.772;2023-03-13T16:27:41;12.20;99.90
13794;DHT22;31160;49.500;7.772;2023-03-13T16:30:22;12.30;99.90
13794;DHT22;31160;49.500;7.772;2023-03-13T16:32:49;12.30;99.90
13794;DHT22;31160;49.500;7.772;2023-03-13T16:35:16;12.30;99.90
13794;DHT22;31160;49.500;7.772;2023-03-13T16:37:43;12.20;99.90
13794;DHT22;31160;49.500;7.772;2023-03-13T16:40:17;12.00;99.90
13794;DHT22;31160;49.500;7.772;2023-03-13T16:42:44;12.00;99.90
13794;DHT22;31160;49.500;7.772;2023-03-13T16:45:12;12.10;99.90
13794;DHT22;31160;49.500;7.772;2023-03-13T16:47:41;12.20;99.90
13794;DHT22;31160;49.500;7.772;2023-03-13T16:52:44;12.30;99.90
13794;DHT22;31160;49.500;7.772;2023-03-13T16:55:11;12.20;99.90
13794;DHT22;31160;49.500;7.772;2023-03-13T16:57:38;12.10;99.90
13794;DHT22;31160;49.500;7.772;2023-03-13T17:00:16;12.20;99.90
13794;DHT22;31160;49.500;7.772;2023-03-13T17:02:44;12.10;99.90
13794;DHT22;31160;49.500;7.772;2023-03-13T17:05:11;12.20;99.90
13794;DHT22;31160;49.500;7.772;2023-03-13T17:07:42;12.10;99.90
13794;DHT22;31160;49.500;7.772;2023-03-13T17:10:27;12.20;99.90
13794;DHT22;31160;49.500;7.772;2023-03-13T17:12:55;12.20;99.90
13794;DHT22;31160;49.500;7.772;2023-03-13T17:15:23;12.30;99.90
13794;DHT22;31160;49.500;7.772;2023-03-13T17:17:50;12.20;99.90
13794;DHT22;31160;49.500;7.772;2023-03-13T17:20:20;12.20;99.90
13794;DHT22;31160;49.500;7.772;2023-03-13T17:22:47;12.30;99.90